sensor_id;sensor_type;location;lat;lon;timestamp;P1;durP1;ratioP1;P2;durP2;ratioP2
23838;SDS011;12100;44.384;20.272;2023-10-31T00:02:18;163.93;;;157.93;;
23838;SDS011;12100;44.384;20.272;2023-10-31T00:04:45;144.07;;;138.65;;
23838;SDS011;12100;44.384;20.272;2023-10-31T00:07:10;158.88;;;152.95;;
23838;SDS011;12100;44.384;20.272;2023-10-31T00:09:36;154.43;;;148.73;;
23838;SDS011;12100;44.384;20.272;2023-10-31T00:12:04;143.05;;;137.82;;
23838;SDS011;12100;44.384;20.272;2023-10-31T00:14:30;192.55;;;184.95;;
23838;SDS011;12100;44.384;20.272;2023-10-31T00:16:57;153.07;;;147.38;;
23838;SDS011;12100;44.384;20.272;2023-10-31T00:19:23;181.65;;;172.60;;
23838;SDS011;12100;44.384;20.272;2023-10-31T00:21:49;153.27;;;147.65;;
23838;SDS011;12100;44.384;20.272;2023-10-31T00:24:14;159.02;;;153.07;;
23838;SDS011;12100;44.384;20.272;2023-10-31T00:26:40;175.23;;;168.63;;
23838;SDS011;12100;44.384;20.272;2023-10-31T00:29:06;206.23;;;197.05;;
23838;SDS011;12100;44.384;20.272;2023-10-31T00:31:32;144.52;;;139.02;;
23838;SDS011;12100;44.384;20.272;2023-10-31T00:34:00;152.52;;;146.77;;
23838;SDS011;12100;44.384;20.272;2023-10-31T00:36:26;136.70;;;131.68;;
23838;SDS011;12100;44.384;20.272;2023-10-31T00:38:52;148.60;;;143.13;;
23838;SDS011;12100;44.384;20.272;2023-10-31T00:41:18;196.88;;;188.15;;
23838;SDS011;12100;44.384;20.272;2023-10-31T00:43:44;140.55;;;135.38;;
23838;SDS011;12100;44.384;20.272;2023-10-31T00:46:10;207.57;;;198.20;;
23838;SDS011;12100;44.384;20.272;2023-10-31T00:48:35;149.02;;;143.38;;
23838;SDS011;12100;44.384;20.272;2023-10-31T00:51:05;174.18;;;167.50;;
23838;SDS011;12100;44.384;20.272;2023-10-31T00:53:31;171.10;;;164.77;;
23838;SDS011;12100;44.384;20.272;2023-10-31T00:55:57;147.98;;;142.15;;
23838;SDS011;12100;44.384;20.272;2023-10-31T00:58:23;145.93;;;140.35;;
23838;SDS011;12100;44.384;20.272;2023-10-31T01:00:49;172.38;;;165.82;;
23838;SDS011;12100;44.384;20.272;2023-10-31T01:03:14;176.50;;;169.68;;
23838;SDS011;12100;44.384;20.272;2023-10-31T01:05:40;138.68;;;133.60;;
23838;SDS011;12100;44.384;20.272;2023-10-31T01:08:06;170.27;;;163.77;;
23838;SDS011;12100;44.384;20.272;2023-10-31T01:10:32;145.38;;;139.70;;
23838;SDS011;12100;44.384;20.272;2023-10-31T01:12:57;231.70;;;220.77;;
23838;SDS011;12100;44.384;20.272;2023-10-31T01:15:23;150.13;;;144.45;;
23838;SDS011;12100;44.384;20.272;2023-10-31T01:17:49;191.38;;;184.10;;
23838;SDS011;12100;44.384;20.272;2023-10-31T01:20:15;188.18;;;180.85;;
23838;SDS011;12100;44.384;20.272;2023-10-31T01:22:41;137.05;;;131.85;;
23838;SDS011;12100;44.384;20.272;2023-10-31T01:25:07;146.07;;;140.55;;
23838;SDS011;12100;44.384;20.272;2023-10-31T01:27:33;199.73;;;191.27;;
23838;SDS011;12100;44.384;20.272;2023-10-31T01:29:58;136.27;;;131.13;;
23838;SDS011;12100;44.384;20.272;2023-10-31T01:32:24;256.88;;;244.57;;
23838;SDS011;12100;44.384;20.272;2023-10-31T01:34:50;185.88;;;178.35;;
23838;SDS011;12100;44.384;20.272;2023-10-31T01:37:16;199.73;;;191.98;;
23838;SDS011;12100;44.384;20.272;2023-10-31T01:39:44;135.65;;;130.60;;
23838;SDS011;12100;44.384;20.272;2023-10-31T01:42:13;259.23;;;247.27;;
23838;SDS011;12100;44.384;20.272;2023-10-31T01:44:40;169.30;;;162.48;;
23838;SDS011;12100;44.384;20.272;2023-10-31T01:47:06;222.73;;;213.20;;
23838;SDS011;12100;44.384;20.272;2023-10-31T01:49:31;246.10;;;233.63;;
23838;SDS011;12100;44.384;20.272;2023-10-31T01:51:58;152.15;;;146.45;;
23838;SDS011;12100;44.384;20.272;2023-10-31T01:54:26;205.60;;;197.32;;
23838;SDS011;12100;44.384;20.272;2023-10-31T01:56:54;155.13;;;149.13;;
23838;SDS011;12100;44.384;20.272;2023-10-31T01:59:23;159.10;;;152.90;;
23838;SDS011;12100;44.384;20.272;2023-10-31T02:01:49;148.63;;;143.18;;
23838;SDS011;12100;44.384;20.272;2023-10-31T02:04:15;144.63;;;139.25;;
23838;SDS011;12100;44.384;20.272;2023-10-31T02:06:41;180.23;;;173.60;;
23838;SDS011;12100;44.384;20.272;2023-10-31T02:09:07;136.23;;;131.13;;
23838;SDS011;12100;44.384;20.272;2023-10-31T02:11:33;161.75;;;155.77;;
23838;SDS011;12100;44.384;20.272;2023-10-31T02:13:59;177.82;;;171.13;;
23838;SDS011;12100;44.384;20.272;2023-10-31T02:16:26;153.40;;;147.55;;
23838;SDS011;12100;44.384;20.272;2023-10-31T02:18:51;194.27;;;187.13;;
23838;SDS011;12100;44.384;20.272;2023-10-31T02:21:18;149.98;;;144.27;;
23838;SDS011;12100;44.384;20.272;2023-10-31T02:23:57;153.73;;;148.00;;
23838;SDS011;12100;44.384;20.272;2023-10-31T02:26:30;167.65;;;161.40;;
23838;SDS011;12100;44.384;20.272;2023-10-31T02:28:56;148.48;;;142.93;;
23838;SDS011;12100;44.384;20.272;2023-10-31T02:31:22;196.38;;;188.93;;
23838;SDS011;12100;44.384;20.272;2023-10-31T02:33:48;169.52;;;163.18;;
23838;SDS011;12100;44.384;20.272;2023-10-31T02:36:14;181.45;;;174.75;;
23838;SDS011;12100;44.384;20.272;2023-10-31T02:38:40;154.00;;;148.30;;
23838;SDS011;12100;44.384;20.272;2023-10-31T02:41:06;156.25;;;150.25;;
23838;SDS011;12100;44.384;20.272;2023-10-31T02:43:32;145.77;;;140.25;;
23838;SDS011;12100;44.384;20.272;2023-10-31T02:45:58;163.75;;;157.65;;
23838;SDS011;12100;44.384;20.272;2023-10-31T02:48:24;152.98;;;147.07;;
23838;SDS011;12100;44.384;20.272;2023-10-31T02:50:51;161.73;;;155.75;;
23838;SDS011;12100;44.384;20.272;2023-10-31T02:53:19;230.15;;;220.57;;
23838;SDS011;12100;44.384;20.272;2023-10-31T02:55:46;194.07;;;186.95;;
23838;SDS011;12100;44.384;20.272;2023-10-31T02:58:11;223.23;;;213.18;;
23838;SDS011;12100;44.384;20.272;2023-10-31T03:00:37;165.65;;;159.23;;
23838;SDS011;12100;44.384;20.272;2023-10-31T03:03:04;157.38;;;151.32;;
23838;SDS011;12100;44.384;20.272;2023-10-31T03:05:30;173.45;;;166.35;;
23838;SDS011;12100;44.384;20.272;2023-10-31T03:07:56;163.10;;;157.00;;
23838;SDS011;12100;44.384;20.272;2023-10-31T03:10:22;210.77;;;202.25;;
23838;SDS011;12100;44.384;20.272;2023-10-31T03:12:48;157.52;;;151.60;;
23838;SDS011;12100;44.384;20.272;2023-10-31T03:15:14;148.18;;;142.48;;
23838;SDS011;12100;44.384;20.272;2023-10-31T03:17:41;135.93;;;130.82;;
23838;SDS011;12100;44.384;20.272;2023-10-31T03:20:08;152.52;;;146.48;;
23838;SDS011;12100;44.384;20.272;2023-10-31T03:22:34;145.15;;;139.70;;
23838;SDS011;12100;44.384;20.272;2023-10-31T03:25:00;163.50;;;157.27;;
23838;SDS011;12100;44.384;20.272;2023-10-31T03:27:26;152.27;;;146.52;;
23838;SDS011;12100;44.384;20.272;2023-10-31T03:29:52;144.25;;;139.00;;
23838;SDS011;12100;44.384;20.272;2023-10-31T03:32:18;159.73;;;153.90;;
23838;SDS011;12100;44.384;20.272;2023-10-31T03:34:44;141.68;;;136.40;;
23838;SDS011;12100;44.384;20.272;2023-10-31T03:37:10;149.95;;;144.20;;
23838;SDS011;12100;44.384;20.272;2023-10-31T03:39:37;149.52;;;143.95;;
23838;SDS011;12100;44.384;20.272;2023-10-31T03:42:03;149.95;;;144.15;;
23838;SDS011;12100;44.384;20.272;2023-10-31T03:44:30;160.82;;;154.82;;
23838;SDS011;12100;44.384;20.272;2023-10-31T03:46:56;187.95;;;180.95;;
23838;SDS011;12100;44.384;20.272;2023-10-31T03:49:22;153.43;;;147.60;;
23838;SDS011;12100;44.384;20.272;2023-10-31T03:51:48;191.30;;;183.70;;
23838;SDS011;12100;44.384;20.272;2023-10-31T03:54:14;126.22;;;121.60;;
23838;SDS011;12100;44.384;20.272;2023-10-31T03:56:41;128.48;;;123.22;;
23838;SDS011;12100;44.384;20.272;2023-10-31T03:59:08;125.63;;;120.70;;
23838;SDS011;12100;44.384;20.272;2023-10-31T04:01:34;133.93;;;128.90;;
23838;SDS011;12100;44.384;20.272;2023-10-31T04:04:00;115.85;;;111.47;;
23838;SDS011;12100;44.384;20.272;2023-10-31T04:06:26;116.63;;;112.28;;
23838;SDS011;12100;44.384;20.272;2023-10-31T04:08:53;120.55;;;116.15;;
23838;SDS011;12100;44.384;20.272;2023-10-31T04:11:19;107.40;;;103.43;;
23838;SDS011;12100;44.384;20.272;2023-10-31T04:13:45;112.95;;;108.63;;
23838;SDS011;12100;44.384;20.272;2023-10-31T04:16:12;118.07;;;113.68;;
23838;SDS011;12100;44.384;20.272;2023-10-31T04:18:38;111.90;;;107.65;;
23838;SDS011;12100;44.384;20.272;2023-10-31T04:21:04;118.57;;;113.93;;
23838;SDS011;12100;44.384;20.272;2023-10-31T04:23:30;117.95;;;113.53;;
23838;SDS011;12100;44.384;20.272;2023-10-31T04:25:56;121.68;;;116.90;;
23838;SDS011;12100;44.384;20.272;2023-10-31T04:28:22;129.10;;;124.25;;
23838;SDS011;12100;44.384;20.272;2023-10-31T04:30:48;129.95;;;125.22;;
23838;SDS011;12100;44.384;20.272;2023-10-31T04:33:14;140.23;;;134.75;;
23838;SDS011;12100;44.384;20.272;2023-10-31T04:35:40;137.35;;;132.23;;
23838;SDS011;12100;44.384;20.272;2023-10-31T04:38:07;139.30;;;134.15;;
23838;SDS011;12100;44.384;20.272;2023-10-31T04:40:33;145.68;;;140.23;;
23838;SDS011;12100;44.384;20.272;2023-10-31T04:42:59;137.93;;;132.85;;
23838;SDS011;12100;44.384;20.272;2023-10-31T04:45:25;203.85;;;193.65;;
23838;SDS011;12100;44.384;20.272;2023-10-31T04:47:51;139.73;;;134.55;;
23838;SDS011;12100;44.384;20.272;2023-10-31T04:50:17;126.88;;;122.10;;
23838;SDS011;12100;44.384;20.272;2023-10-31T04:52:43;137.60;;;132.57;;
23838;SDS011;12100;44.384;20.272;2023-10-31T04:55:09;137.70;;;132.57;;
23838;SDS011;12100;44.384;20.272;2023-10-31T04:57:35;156.70;;;150.88;;
23838;SDS011;12100;44.384;20.272;2023-10-31T05:00:02;148.30;;;142.77;;
23838;SDS011;12100;44.384;20.272;2023-10-31T05:02:30;158.63;;;152.52;;
23838;SDS011;12100;44.384;20.272;2023-10-31T05:04:57;135.48;;;130.25;;
23838;SDS011;12100;44.384;20.272;2023-10-31T05:07:23;151.23;;;145.52;;
23838;SDS011;12100;44.384;20.272;2023-10-31T05:09:50;159.52;;;153.63;;
23838;SDS011;12100;44.384;20.272;2023-10-31T05:12:16;150.07;;;144.50;;
23838;SDS011;12100;44.384;20.272;2023-10-31T05:14:42;138.95;;;133.70;;
23838;SDS011;12100;44.384;20.272;2023-10-31T05:17:08;147.10;;;141.60;;
23838;SDS011;12100;44.384;20.272;2023-10-31T05:19:34;132.07;;;126.75;;
23838;SDS011;12100;44.384;20.272;2023-10-31T05:22:01;115.80;;;111.55;;
23838;SDS011;12100;44.384;20.272;2023-10-31T05:24:27;115.97;;;111.55;;
23838;SDS011;12100;44.384;20.272;2023-10-31T05:26:53;93.93;;;90.25;;
23838;SDS011;12100;44.384;20.272;2023-10-31T05:29:19;95.35;;;91.80;;
23838;SDS011;12100;44.384;20.272;2023-10-31T05:31:45;111.55;;;107.38;;
23838;SDS011;12100;44.384;20.272;2023-10-31T05:34:12;163.18;;;156.77;;
23838;SDS011;12100;44.384;20.272;2023-10-31T05:36:38;150.27;;;144.65;;
23838;SDS011;12100;44.384;20.272;2023-10-31T05:39:04;104.32;;;100.30;;
23838;SDS011;12100;44.384;20.272;2023-10-31T05:41:33;126.07;;;121.07;;
23838;SDS011;12100;44.384;20.272;2023-10-31T05:44:01;88.20;;;84.40;;
23838;SDS011;12100;44.384;20.272;2023-10-31T05:46:27;60.20;;;57.90;;
23838;SDS011;12100;44.384;20.272;2023-10-31T05:48:53;121.40;;;115.75;;
23838;SDS011;12100;44.384;20.272;2023-10-31T05:51:19;82.50;;;79.13;;
23838;SDS011;12100;44.384;20.272;2023-10-31T05:53:46;96.95;;;93.18;;
23838;SDS011;12100;44.384;20.272;2023-10-31T05:56:13;1042.72;;;541.03;;
23838;SDS011;12100;44.384;20.272;2023-10-31T05:58:40;1999.90;;;999.90;;
23838;SDS011;12100;44.384;20.272;2023-10-31T06:01:07;1999.90;;;999.90;;
23838;SDS011;12100;44.384;20.272;2023-10-31T06:03:33;98.72;;;94.82;;
23838;SDS011;12100;44.384;20.272;2023-10-31T06:05:59;95.85;;;92.07;;
23838;SDS011;12100;44.384;20.272;2023-10-31T06:08:25;1052.43;;;550.45;;
23838;SDS011;12100;44.384;20.272;2023-10-31T06:10:54;85.28;;;82.03;;
23838;SDS011;12100;44.384;20.272;2023-10-31T06:13:24;81.20;;;78.03;;
23838;SDS011;12100;44.384;20.272;2023-10-31T06:15:56;84.25;;;80.95;;
23838;SDS011;12100;44.384;20.272;2023-10-31T06:18:23;80.50;;;77.45;;
23838;SDS011;12100;44.384;20.272;2023-10-31T06:20:49;562.58;;;310.02;;
23838;SDS011;12100;44.384;20.272;2023-10-31T06:23:15;1526.72;;;775.70;;
23838;SDS011;12100;44.384;20.272;2023-10-31T06:25:40;80.55;;;77.45;;
23838;SDS011;12100;44.384;20.272;2023-10-31T06:28:06;94.13;;;90.55;;
23838;SDS011;12100;44.384;20.272;2023-10-31T06:30:32;135.02;;;129.32;;
23838;SDS011;12100;44.384;20.272;2023-10-31T06:32:58;136.50;;;130.98;;
23838;SDS011;12100;44.384;20.272;2023-10-31T06:35:24;54.50;;;52.30;;
23838;SDS011;12100;44.384;20.272;2023-10-31T06:37:51;59.13;;;56.50;;
23838;SDS011;12100;44.384;20.272;2023-10-31T06:40:21;82.03;;;78.57;;
23838;SDS011;12100;44.384;20.272;2023-10-31T06:42:47;107.40;;;103.30;;
23838;SDS011;12100;44.384;20.272;2023-10-31T06:45:13;136.25;;;130.73;;
23838;SDS011;12100;44.384;20.272;2023-10-31T06:47:38;162.88;;;156.88;;
23838;SDS011;12100;44.384;20.272;2023-10-31T06:50:08;156.68;;;150.73;;
23838;SDS011;12100;44.384;20.272;2023-10-31T06:52:34;172.10;;;165.82;;
23838;SDS011;12100;44.384;20.272;2023-10-31T06:55:00;163.48;;;157.05;;
23838;SDS011;12100;44.384;20.272;2023-10-31T06:57:26;147.68;;;142.20;;
23838;SDS011;12100;44.384;20.272;2023-10-31T06:59:52;164.88;;;158.50;;
23838;SDS011;12100;44.384;20.272;2023-10-31T07:02:18;145.32;;;139.23;;
23838;SDS011;12100;44.384;20.272;2023-10-31T07:04:43;147.00;;;141.27;;
23838;SDS011;12100;44.384;20.272;2023-10-31T07:07:09;113.55;;;109.05;;
23838;SDS011;12100;44.384;20.272;2023-10-31T07:09:35;173.57;;;166.85;;
23838;SDS011;12100;44.384;20.272;2023-10-31T07:12:01;125.00;;;120.15;;
23838;SDS011;12100;44.384;20.272;2023-10-31T07:14:27;157.18;;;151.23;;
23838;SDS011;12100;44.384;20.272;2023-10-31T07:16:53;110.55;;;106.07;;
23838;SDS011;12100;44.384;20.272;2023-10-31T07:19:18;86.88;;;83.47;;
23838;SDS011;12100;44.384;20.272;2023-10-31T07:21:44;130.00;;;124.97;;
23838;SDS011;12100;44.384;20.272;2023-10-31T07:24:10;86.03;;;82.55;;
23838;SDS011;12100;44.384;20.272;2023-10-31T07:26:36;103.53;;;99.68;;
23838;SDS011;12100;44.384;20.272;2023-10-31T07:29:02;114.90;;;110.47;;
23838;SDS011;12100;44.384;20.272;2023-10-31T07:31:28;91.68;;;88.18;;
23838;SDS011;12100;44.384;20.272;2023-10-31T07:33:54;98.38;;;94.55;;
23838;SDS011;12100;44.384;20.272;2023-10-31T07:36:21;83.50;;;80.18;;
23838;SDS011;12100;44.384;20.272;2023-10-31T07:38:47;90.95;;;87.45;;
23838;SDS011;12100;44.384;20.272;2023-10-31T07:41:13;97.32;;;93.70;;
23838;SDS011;12100;44.384;20.272;2023-10-31T07:43:39;142.45;;;136.85;;
23838;SDS011;12100;44.384;20.272;2023-10-31T07:46:05;104.60;;;100.50;;
23838;SDS011;12100;44.384;20.272;2023-10-31T07:48:32;104.15;;;99.95;;
23838;SDS011;12100;44.384;20.272;2023-10-31T07:50:58;120.88;;;115.93;;
23838;SDS011;12100;44.384;20.272;2023-10-31T07:53:23;125.47;;;120.78;;
23838;SDS011;12100;44.384;20.272;2023-10-31T07:55:49;98.75;;;94.97;;
23838;SDS011;12100;44.384;20.272;2023-10-31T07:58:15;110.35;;;106.05;;
23838;SDS011;12100;44.384;20.272;2023-10-31T08:00:41;100.40;;;96.22;;
23838;SDS011;12100;44.384;20.272;2023-10-31T08:03:07;109.88;;;105.43;;
23838;SDS011;12100;44.384;20.272;2023-10-31T08:05:33;141.07;;;134.63;;
23838;SDS011;12100;44.384;20.272;2023-10-31T08:07:59;117.05;;;112.25;;
23838;SDS011;12100;44.384;20.272;2023-10-31T08:10:27;134.20;;;129.15;;
23838;SDS011;12100;44.384;20.272;2023-10-31T08:12:52;120.88;;;116.43;;
23838;SDS011;12100;44.384;20.272;2023-10-31T08:15:18;121.53;;;116.57;;
23838;SDS011;12100;44.384;20.272;2023-10-31T08:17:44;132.63;;;127.65;;
23838;SDS011;12100;44.384;20.272;2023-10-31T08:20:10;150.07;;;144.40;;
23838;SDS011;12100;44.384;20.272;2023-10-31T08:22:38;139.80;;;134.32;;
23838;SDS011;12100;44.384;20.272;2023-10-31T08:25:04;134.27;;;129.20;;
23838;SDS011;12100;44.384;20.272;2023-10-31T08:27:30;143.60;;;138.15;;
23838;SDS011;12100;44.384;20.272;2023-10-31T08:29:56;321.63;;;305.65;;
23838;SDS011;12100;44.384;20.272;2023-10-31T08:32:22;203.27;;;194.30;;
23838;SDS011;12100;44.384;20.272;2023-10-31T08:34:49;152.73;;;146.77;;
23838;SDS011;12100;44.384;20.272;2023-10-31T08:37:15;139.27;;;133.90;;
23838;SDS011;12100;44.384;20.272;2023-10-31T08:39:41;147.52;;;140.73;;
23838;SDS011;12100;44.384;20.272;2023-10-31T08:42:07;135.60;;;130.45;;
23838;SDS011;12100;44.384;20.272;2023-10-31T08:44:34;124.35;;;119.57;;
23838;SDS011;12100;44.384;20.272;2023-10-31T08:47:02;149.55;;;143.18;;
23838;SDS011;12100;44.384;20.272;2023-10-31T08:49:29;113.50;;;109.13;;
23838;SDS011;12100;44.384;20.272;2023-10-31T08:51:55;91.93;;;88.28;;
23838;SDS011;12100;44.384;20.272;2023-10-31T08:54:21;77.35;;;74.05;;
23838;SDS011;12100;44.384;20.272;2023-10-31T08:56:46;71.65;;;68.18;;
23838;SDS011;12100;44.384;20.272;2023-10-31T08:59:12;108.55;;;103.70;;
23838;SDS011;12100;44.384;20.272;2023-10-31T09:01:38;155.48;;;147.90;;
23838;SDS011;12100;44.384;20.272;2023-10-31T09:04:04;58.88;;;56.47;;
23838;SDS011;12100;44.384;20.272;2023-10-31T09:06:30;78.45;;;74.50;;
23838;SDS011;12100;44.384;20.272;2023-10-31T09:08:55;65.32;;;62.60;;
23838;SDS011;12100;44.384;20.272;2023-10-31T09:11:21;99.85;;;95.00;;
23838;SDS011;12100;44.384;20.272;2023-10-31T09:13:47;75.03;;;70.72;;
23838;SDS011;12100;44.384;20.272;2023-10-31T09:16:13;74.13;;;70.70;;
23838;SDS011;12100;44.384;20.272;2023-10-31T09:18:39;66.90;;;64.38;;
23838;SDS011;12100;44.384;20.272;2023-10-31T09:21:04;91.20;;;87.65;;
23838;SDS011;12100;44.384;20.272;2023-10-31T09:23:30;83.68;;;79.88;;
23838;SDS011;12100;44.384;20.272;2023-10-31T09:25:56;69.70;;;67.00;;
23838;SDS011;12100;44.384;20.272;2023-10-31T09:28:23;94.25;;;89.57;;
23838;SDS011;12100;44.384;20.272;2023-10-31T09:30:49;84.07;;;80.00;;
23838;SDS011;12100;44.384;20.272;2023-10-31T09:33:15;1999.90;;;999.90;;
23838;SDS011;12100;44.384;20.272;2023-10-31T09:35:41;60.33;;;57.85;;
23838;SDS011;12100;44.384;20.272;2023-10-31T09:38:07;1999.90;;;999.90;;
23838;SDS011;12100;44.384;20.272;2023-10-31T09:40:33;1999.90;;;999.90;;
23838;SDS011;12100;44.384;20.272;2023-10-31T09:42:59;1999.90;;;999.90;;
23838;SDS011;12100;44.384;20.272;2023-10-31T09:45:24;1999.90;;;999.90;;
23838;SDS011;12100;44.384;20.272;2023-10-31T09:47:50;1999.90;;;999.90;;
23838;SDS011;12100;44.384;20.272;2023-10-31T09:50:17;1523.70;;;772.75;;
23838;SDS011;12100;44.384;20.272;2023-10-31T09:52:43;110.68;;;106.47;;
23838;SDS011;12100;44.384;20.272;2023-10-31T09:55:10;93.18;;;89.20;;
23838;SDS011;12100;44.384;20.272;2023-10-31T09:57:36;89.40;;;85.88;;
23838;SDS011;12100;44.384;20.272;2023-10-31T10:02:26;67.75;;;64.80;;
23838;SDS011;12100;44.384;20.272;2023-10-31T10:05:22;87.95;;;84.13;;
23838;SDS011;12100;44.384;20.272;2023-10-31T10:07:49;83.97;;;80.68;;
23838;SDS011;12100;44.384;20.272;2023-10-31T10:11:07;1999.90;;;999.90;;
23838;SDS011;12100;44.384;20.272;2023-10-31T10:13:33;1999.90;;;999.90;;
23838;SDS011;12100;44.384;20.272;2023-10-31T10:20:28;1999.90;;;999.90;;
23838;SDS011;12100;44.384;20.272;2023-10-31T10:24:23;1999.90;;;999.90;;
23838;SDS011;12100;44.384;20.272;2023-10-31T10:33:11;1999.90;;;999.90;;
23838;SDS011;12100;44.384;20.272;2023-10-31T10:36:03;1999.90;;;999.90;;
23838;SDS011;12100;44.384;20.272;2023-10-31T10:41:34;1999.90;;;999.90;;
23838;SDS011;12100;44.384;20.272;2023-10-31T10:44:44;1999.90;;;999.90;;
23838;SDS011;12100;44.384;20.272;2023-10-31T10:47:09;1999.90;;;999.90;;
